createdAt,value
2019-01-28T00:01:37.235Z,3.54
2019-01-28T00:04:26.335Z,3.55
2019-01-28T00:07:14.762Z,3.47
2019-01-28T00:10:02.941Z,3.45
2019-01-28T00:13:11.256Z,3.40
2019-01-28T00:15:59.957Z,3.37
2019-01-28T00:18:48.913Z,3.36
2019-01-28T00:21:38.577Z,3.31
2019-01-28T00:24:27.895Z,3.33
2019-01-28T00:27:17.372Z,3.27
2019-01-28T00:30:07.229Z,3.22
2019-01-28T00:32:55.864Z,3.18
2019-01-28T00:35:44.344Z,3.15
2019-01-28T00:38:33.341Z,2.87
2019-01-28T00:41:23.052Z,2.75
2019-01-28T00:44:11.813Z,2.75
2019-01-28T00:47:01.115Z,2.51
2019-01-28T00:49:49.934Z,2.51
2019-01-28T00:52:39.428Z,2.36
2019-01-28T00:55:28.271Z,2.24
2019-01-28T00:58:17.254Z,2.17
2019-01-28T01:01:05.884Z,2.13
2019-01-28T01:03:54.812Z,2.09
2019-01-28T01:06:43.428Z,2.01
2019-01-28T01:09:35.786Z,2.04
2019-01-28T01:12:25.121Z,2.00
2019-01-28T01:15:15.490Z,2.00
2019-01-28T01:18:04.302Z,1.98
2019-01-28T01:20:53.257Z,2.00
2019-01-28T01:23:41.701Z,2.05
2019-01-28T01:26:30.491Z,2.00
2019-01-28T01:29:19.171Z,1.98
2019-01-28T01:32:08.282Z,1.91
2019-01-28T01:34:57.226Z,1.89
2019-01-28T01:37:48.492Z,1.80
2019-01-28T01:40:38.248Z,1.80
2019-01-28T01:43:26.807Z,1.76
2019-01-28T01:46:15.733Z,1.76
2019-01-28T01:49:04.645Z,1.69
2019-01-28T01:51:53.108Z,1.65
2019-01-28T01:54:41.450Z,1.58
2019-01-28T01:57:48.422Z,1.57
2019-01-28T02:00:24.158Z,1.56
2019-01-28T02:03:12.888Z,1.53
2019-01-28T02:06:02.407Z,1.49
2019-01-28T02:08:50.531Z,1.37
2019-01-28T02:11:42.367Z,1.39
2019-01-28T02:14:30.954Z,1.30
2019-01-28T02:17:19.579Z,1.27
2019-01-28T02:20:09.320Z,1.33
2019-01-28T02:22:58.040Z,1.32
2019-01-28T02:25:47.409Z,1.28
2019-01-28T02:28:36.477Z,1.37
2019-01-28T02:31:25.334Z,1.42
2019-01-28T02:34:14.001Z,1.42
2019-01-28T02:37:03.346Z,1.44
2019-01-28T02:39:52.328Z,1.42
2019-01-28T02:42:41.661Z,1.47
2019-01-28T02:45:30.848Z,1.44
2019-01-28T02:48:20.595Z,1.42
2019-01-28T02:51:09.659Z,1.44
2019-01-28T02:53:58.493Z,1.41
2019-01-28T02:56:47.436Z,1.42
2019-01-28T02:59:36.078Z,1.41
2019-01-28T03:02:25.641Z,1.45
2019-01-28T03:05:14.683Z,1.51
2019-01-28T03:08:03.565Z,1.57
2019-01-28T03:10:52.247Z,1.48
2019-01-28T03:13:40.958Z,1.55
2019-01-28T03:16:29.198Z,1.64
2019-01-28T03:19:19.964Z,1.55
2019-01-28T03:22:08.770Z,1.56
2019-01-28T03:24:57.678Z,1.57
2019-01-28T03:27:47.026Z,1.56
2019-01-28T03:30:35.435Z,1.61
2019-01-28T03:33:23.414Z,1.61
2019-01-28T03:36:12.566Z,1.64
2019-01-28T03:39:01.348Z,1.54
2019-01-28T03:41:50.430Z,1.56
2019-01-28T03:44:39.998Z,1.54
2019-01-28T03:47:28.732Z,1.55
2019-01-28T03:50:18.448Z,1.54
2019-01-28T03:53:12.730Z,1.57
2019-01-28T03:56:02.138Z,1.53
2019-01-28T03:58:51.393Z,1.52
2019-01-28T04:01:40.262Z,1.43
2019-01-28T04:04:28.393Z,1.48
2019-01-28T04:07:17.976Z,1.44
2019-01-28T04:10:10.185Z,1.51
2019-01-28T04:12:59.055Z,1.56
2019-01-28T04:15:48.662Z,1.58
2019-01-28T04:18:37.662Z,1.60
2019-01-28T04:21:26.859Z,1.65
2019-01-28T04:24:15.597Z,1.65
2019-01-28T04:27:04.312Z,1.71
2019-01-28T04:29:53.949Z,1.66
2019-01-28T04:32:43.200Z,1.72
2019-01-28T04:35:32.067Z,1.71
2019-01-28T04:38:21.743Z,1.77
2019-01-28T04:41:10.612Z,1.83
2019-01-28T04:43:59.630Z,1.82
2019-01-28T04:46:50.011Z,1.87
2019-01-28T04:49:39.162Z,1.87
2019-01-28T04:52:28.006Z,1.86
2019-01-28T04:55:17.665Z,1.84
2019-01-28T04:58:06.691Z,1.89
2019-01-28T05:00:56.651Z,1.75
2019-01-28T05:03:46.334Z,1.84
2019-01-28T05:06:36.996Z,1.86
2019-01-28T05:09:26.028Z,1.88
2019-01-28T05:12:15.168Z,1.89
2019-01-28T05:15:05.556Z,1.89
2019-01-28T05:17:55.711Z,1.95
2019-01-28T05:20:44.353Z,1.94
2019-01-28T05:23:33.765Z,1.94
2019-01-28T05:26:22.552Z,1.91
2019-01-28T05:29:12.077Z,1.87
2019-01-28T05:32:01.370Z,1.89
2019-01-28T05:34:50.319Z,1.86
2019-01-28T05:37:39.202Z,1.88
2019-01-28T05:40:28.850Z,1.89
2019-01-28T05:43:18.050Z,1.90
2019-01-28T05:46:07.099Z,1.87
2019-01-28T05:48:56.988Z,1.87
2019-01-28T05:51:46.144Z,1.99
2019-01-28T05:54:35.006Z,1.95
2019-01-28T05:57:23.782Z,1.93
2019-01-28T06:00:19.407Z,1.90
2019-01-28T06:03:08.743Z,1.93
2019-01-28T06:05:58.171Z,1.93
2019-01-28T06:08:48.215Z,2.04
2019-01-28T06:11:36.785Z,2.04
2019-01-28T06:14:27.607Z,2.01
2019-01-28T06:17:16.450Z,1.94
2019-01-28T06:20:06.258Z,1.93
2019-01-28T06:22:55.173Z,1.94
2019-01-28T06:25:43.594Z,1.92
2019-01-28T06:28:32.440Z,1.89
2019-01-28T06:31:21.913Z,1.97
2019-01-28T06:34:10.930Z,1.91
2019-01-28T06:36:59.639Z,1.96
2019-01-28T06:39:47.808Z,2.02
2019-01-28T06:42:36.793Z,1.96
2019-01-28T06:45:25.845Z,1.97
2019-01-28T06:48:18.782Z,2.08
2019-01-28T06:51:07.824Z,1.99
2019-01-28T06:53:57.080Z,1.94
2019-01-28T06:56:45.486Z,2.00
2019-01-28T06:59:34.315Z,2.01
2019-01-28T07:02:23.202Z,1.94
2019-01-28T07:05:11.643Z,1.93
2019-01-28T07:08:00.435Z,1.95
2019-01-28T07:10:49.110Z,1.97
2019-01-28T07:13:37.907Z,1.94
2019-01-28T07:16:29.967Z,1.98
2019-01-28T07:19:18.974Z,2.00
2019-01-28T07:22:08.550Z,2.10
2019-01-28T07:24:57.224Z,2.07
2019-01-28T07:27:45.751Z,2.02
2019-01-28T07:30:36.108Z,2.04
2019-01-28T07:33:25.729Z,2.07
2019-01-28T07:36:15.335Z,1.97
2019-01-28T07:39:05.799Z,1.94
2019-01-28T07:41:54.800Z,1.95
2019-01-28T07:44:43.386Z,1.98
2019-01-28T07:47:37.515Z,2.03
2019-01-28T07:50:26.396Z,2.07
2019-01-28T07:53:14.801Z,2.01
2019-01-28T07:56:03.433Z,2.05
2019-01-28T07:58:51.877Z,2.06
2019-01-28T08:01:44.148Z,2.01
2019-01-28T08:04:32.053Z,2.06
2019-01-28T08:07:20.021Z,2.13
2019-01-28T08:10:09.785Z,2.18
2019-01-28T08:13:02.031Z,2.21
2019-01-28T08:15:51.455Z,2.19
2019-01-28T08:18:41.212Z,2.27
2019-01-28T08:21:29.741Z,2.13
2019-01-28T08:24:18.367Z,2.15
2019-01-28T08:27:08.502Z,2.21
2019-01-28T08:29:57.247Z,2.21
2019-01-28T08:32:45.482Z,2.15
2019-01-28T08:35:35.867Z,2.06
2019-01-28T08:38:24.884Z,2.16
2019-01-28T08:41:13.735Z,2.23
2019-01-28T08:44:02.084Z,2.21
2019-01-28T08:46:50.472Z,2.27
2019-01-28T08:49:38.720Z,2.33
2019-01-28T08:52:28.328Z,2.28
2019-01-28T08:55:19.436Z,2.16
2019-01-28T08:58:08.297Z,2.23
2019-01-28T09:00:57.214Z,2.29
2019-01-28T09:03:45.940Z,2.31
2019-01-28T09:06:34.706Z,2.29
2019-01-28T09:09:23.677Z,2.39
2019-01-28T09:12:12.402Z,2.35
2019-01-28T09:15:02.795Z,2.40
2019-01-28T09:17:51.011Z,2.45
2019-01-28T09:20:40.857Z,2.47
2019-01-28T09:23:29.791Z,2.53
2019-01-28T09:26:18.633Z,2.73
2019-01-28T09:29:07.318Z,2.73
2019-01-28T09:31:56.219Z,2.69
2019-01-28T09:34:45.039Z,2.75
2019-01-28T09:37:33.288Z,2.82
2019-01-28T09:40:23.405Z,2.82
2019-01-28T09:43:12.008Z,3.02
2019-01-28T09:46:00.023Z,3.18
2019-01-28T09:48:49.038Z,3.09
2019-01-28T09:51:37.911Z,2.99
2019-01-28T09:54:27.764Z,3.07
2019-01-28T09:57:16.672Z,3.07
2019-01-28T10:00:08.503Z,2.93
2019-01-28T10:02:57.239Z,2.93
2019-01-28T10:05:45.959Z,2.85
2019-01-28T10:08:34.394Z,2.82
2019-01-28T10:11:22.694Z,2.81
2019-01-28T10:14:11.309Z,2.74
2019-01-28T10:17:00.141Z,2.65
2019-01-28T10:19:49.416Z,2.62
2019-01-28T10:22:38.221Z,2.49
2019-01-28T10:25:27.694Z,2.53
2019-01-28T10:28:16.837Z,2.72
2019-01-28T10:31:06.907Z,2.72
2019-01-28T10:33:55.573Z,2.60
2019-01-28T10:36:44.499Z,2.69
2019-01-28T10:39:33.841Z,2.83
2019-01-28T10:42:22.424Z,2.88
2019-01-28T10:45:11.612Z,3.15
2019-01-28T10:48:00.866Z,3.55
2019-01-28T10:50:49.168Z,3.62
2019-01-28T10:53:37.538Z,3.62
2019-01-28T10:56:26.771Z,3.78
2019-01-28T10:59:15.247Z,3.99
2019-01-28T11:02:03.643Z,4.14
2019-01-28T11:04:52.221Z,4.17
2019-01-28T11:07:40.780Z,4.28
2019-01-28T11:10:29.336Z,3.98
2019-01-28T11:13:17.976Z,3.82
2019-01-28T11:16:06.255Z,3.80
2019-01-28T11:18:57.835Z,3.96
2019-01-28T11:21:44.939Z,4.03
2019-01-28T11:24:34.263Z,3.96
2019-01-28T11:27:22.617Z,3.59
2019-01-28T11:30:21.223Z,3.57
2019-01-28T11:33:10.467Z,3.76
2019-01-28T11:36:05.156Z,3.86
2019-01-28T11:38:48.768Z,3.68
2019-01-28T11:41:37.298Z,3.67
2019-01-28T11:44:25.885Z,3.66
2019-01-28T11:47:15.502Z,3.54
2019-01-28T11:50:05.524Z,3.47
2019-01-28T11:52:54.188Z,3.47
2019-01-28T11:55:43.686Z,3.44
2019-01-28T11:58:33.063Z,3.60
2019-01-28T12:01:29.008Z,3.66
2019-01-28T12:04:19.059Z,3.89
2019-01-28T12:07:08.423Z,4.01
2019-01-28T12:09:57.423Z,3.69
2019-01-28T12:12:47.144Z,3.38
2019-01-28T12:15:36.341Z,3.38
2019-01-28T12:18:25.481Z,3.38
2019-01-28T12:21:14.045Z,3.27
2019-01-28T12:24:02.711Z,3.32
2019-01-28T12:26:52.228Z,3.27
2019-01-28T12:29:40.879Z,3.43
2019-01-28T12:32:28.919Z,3.60
2019-01-28T12:35:18.222Z,3.62
2019-01-28T12:38:07.377Z,3.57
2019-01-28T12:40:56.354Z,3.72
2019-01-28T12:43:44.916Z,4.07
2019-01-28T12:46:36.359Z,4.35
2019-01-28T12:49:25.611Z,4.68
2019-01-28T12:52:15.384Z,4.95
2019-01-28T12:55:05.454Z,4.92
2019-01-28T12:57:53.938Z,4.66
2019-01-28T13:00:46.314Z,4.48
2019-01-28T13:03:37.317Z,4.80
2019-01-28T13:06:26.037Z,4.83
2019-01-28T13:09:15.461Z,4.76
2019-01-28T13:12:04.754Z,4.64
2019-01-28T13:14:54.240Z,4.72
2019-01-28T13:17:42.760Z,4.41
2019-01-28T13:20:31.443Z,4.45
2019-01-28T13:23:19.969Z,4.27
2019-01-28T13:26:07.939Z,4.29
2019-01-28T13:28:56.114Z,4.84
2019-01-28T13:32:03.748Z,4.96
2019-01-28T13:34:52.629Z,4.50
2019-01-28T13:37:41.303Z,4.75
2019-01-28T13:40:29.718Z,4.32
2019-01-28T13:43:19.031Z,4.13
2019-01-28T13:46:07.879Z,4.03
2019-01-28T13:48:56.964Z,3.79
2019-01-28T13:51:45.690Z,3.66
2019-01-28T13:54:34.036Z,3.62
2019-01-28T13:57:22.736Z,3.66
2019-01-28T14:00:18.899Z,3.53
2019-01-28T14:03:07.671Z,3.63
2019-01-28T14:05:56.954Z,3.54
2019-01-28T14:08:45.764Z,3.68
2019-01-28T14:11:34.235Z,3.68
2019-01-28T14:14:22.669Z,3.64
2019-01-28T14:17:11.227Z,3.65
2019-01-28T14:20:00.511Z,3.63
2019-01-28T14:22:49.897Z,3.52
2019-01-28T14:25:40.914Z,3.17
2019-01-28T14:28:31.212Z,3.17
2019-01-28T14:31:20.007Z,3.16
2019-01-28T14:34:08.389Z,3.30
2019-01-28T14:36:56.551Z,3.37
2019-01-28T14:39:45.217Z,3.29
2019-01-28T14:42:33.732Z,3.29
2019-01-28T14:45:22.792Z,3.19
2019-01-28T14:48:12.583Z,3.10
2019-01-28T14:51:00.751Z,3.10
2019-01-28T14:54:00.298Z,3.27
2019-01-28T14:56:55.090Z,3.30
2019-01-28T14:59:43.990Z,3.18
2019-01-28T15:02:32.909Z,3.24
2019-01-28T15:05:21.757Z,3.06
2019-01-28T15:08:11.211Z,2.87
2019-01-28T15:11:00.007Z,2.88
2019-01-28T15:13:49.222Z,2.74
2019-01-28T15:16:37.504Z,2.59
2019-01-28T15:19:31.222Z,2.59
2019-01-28T15:22:20.675Z,2.65
2019-01-28T15:25:11.594Z,2.56
2019-01-28T15:28:19.529Z,2.51
2019-01-28T15:31:08.073Z,2.40
2019-01-28T15:33:56.558Z,2.38
2019-01-28T15:36:45.724Z,2.38
2019-01-28T15:39:33.419Z,2.30
2019-01-28T15:42:22.635Z,2.34
2019-01-28T15:45:26.230Z,2.29
2019-01-28T15:48:16.266Z,2.23
2019-01-28T15:51:04.518Z,2.17
2019-01-28T15:53:55.421Z,2.12
2019-01-28T15:56:44.456Z,2.10
2019-01-28T15:59:33.121Z,2.06
2019-01-28T16:02:21.547Z,2.03
2019-01-28T16:05:11.840Z,2.05
2019-01-28T16:08:03.082Z,1.99
2019-01-28T16:10:55.037Z,1.93
2019-01-28T16:13:44.041Z,1.83
2019-01-28T16:16:32.737Z,1.80
2019-01-28T16:20:01.089Z,1.78
2019-01-28T16:23:13.190Z,1.77
2019-01-28T16:26:04.173Z,1.74
2019-01-28T16:28:53.095Z,1.85
2019-01-28T16:31:48.626Z,1.86
2019-01-28T16:34:35.908Z,1.77
2019-01-28T16:37:30.993Z,1.75
2019-01-28T16:40:20.630Z,1.71
2019-01-28T16:43:10.892Z,1.71
2019-01-28T16:45:58.784Z,1.74
2019-01-28T16:48:48.262Z,1.63
2019-01-28T16:51:36.921Z,1.60
2019-01-28T16:54:25.689Z,1.56
2019-01-28T16:57:13.845Z,1.60
2019-01-28T17:00:04.046Z,1.45
2019-01-28T17:02:53.153Z,1.44
2019-01-28T17:05:43.299Z,1.38
2019-01-28T17:08:32.549Z,1.33
2019-01-28T17:11:22.067Z,1.20
2019-01-28T17:14:13.447Z,1.22
2019-01-28T17:17:02.757Z,1.17
2019-01-28T17:19:52.352Z,1.10
2019-01-28T17:22:41.312Z,0.97
2019-01-28T17:25:35.642Z,1.00
2019-01-28T17:28:25.608Z,0.97
2019-01-28T17:31:15.227Z,0.94
2019-01-28T17:34:04.378Z,0.96
2019-01-28T17:36:52.732Z,1.07
2019-01-28T17:39:41.386Z,0.99
2019-01-28T17:42:29.562Z,0.98
2019-01-28T17:45:19.638Z,0.94
2019-01-28T17:48:08.506Z,0.98
2019-01-28T17:50:57.199Z,0.90
2019-01-28T17:53:45.583Z,0.86
2019-01-28T17:56:34.474Z,0.92
2019-01-28T17:59:23.369Z,0.92
2019-01-28T18:02:11.806Z,0.77
2019-01-28T18:05:00.628Z,0.71
2019-01-28T18:11:22.819Z,0.67
2019-01-28T18:14:11.757Z,0.68
2019-01-28T18:17:00.883Z,0.66
2019-01-28T18:20:09.981Z,0.78
2019-01-28T18:23:01.948Z,0.66
2019-01-28T18:25:55.738Z,0.56
2019-01-28T18:28:45.532Z,0.52
2019-01-28T18:31:34.458Z,0.55
2019-01-28T18:34:23.200Z,0.52
2019-01-28T18:37:11.532Z,0.59
2019-01-28T18:40:18.860Z,0.61
2019-01-28T18:43:09.118Z,0.60
2019-01-28T18:45:57.876Z,0.63
2019-01-28T18:49:06.244Z,0.62
2019-01-28T18:51:55.731Z,0.62
2019-01-28T18:54:44.400Z,0.71
2019-01-28T18:57:32.680Z,0.71
2019-01-28T19:00:22.569Z,0.79
2019-01-28T19:03:14.284Z,0.84
2019-01-28T19:06:11.900Z,0.80
2019-01-28T19:09:06.395Z,0.83
2019-01-28T19:12:17.048Z,0.83
2019-01-28T19:15:16.313Z,0.93
2019-01-28T19:18:27.821Z,0.87
2019-01-28T19:21:35.772Z,0.90
2019-01-28T19:24:24.827Z,0.92
2019-01-28T19:27:14.151Z,0.88
2019-01-28T19:30:03.095Z,0.93
2019-01-28T19:32:51.711Z,0.92
2019-01-28T19:35:40.811Z,0.96
2019-01-28T19:38:30.428Z,1.00
2019-01-28T19:41:18.796Z,0.98
2019-01-28T19:44:07.618Z,0.94
2019-01-28T19:46:56.786Z,0.92
2019-01-28T19:49:46.118Z,0.93
2019-01-28T19:52:39.050Z,0.97
2019-01-28T19:55:27.340Z,0.99
2019-01-28T19:58:19.143Z,0.97
2019-01-28T20:01:08.395Z,1.08
2019-01-28T20:03:56.983Z,1.11
2019-01-28T20:06:46.112Z,1.10
2019-01-28T20:09:34.407Z,1.14
2019-01-28T20:12:22.734Z,1.19
2019-01-28T20:15:12.824Z,1.22
2019-01-28T20:18:04.329Z,1.30
2019-01-28T20:20:53.581Z,1.28
2019-01-28T20:23:42.124Z,1.26
2019-01-28T20:26:33.127Z,1.24
2019-01-28T20:29:21.977Z,1.34
2019-01-28T20:32:11.114Z,1.34
2019-01-28T20:34:59.937Z,1.29
2019-01-28T20:37:50.779Z,1.28
2019-01-28T20:40:39.239Z,1.29
2019-01-28T20:43:27.668Z,1.31
2019-01-28T20:46:16.379Z,1.33
2019-01-28T20:49:08.323Z,1.28
2019-01-28T20:51:57.051Z,1.30
2019-01-28T20:54:46.075Z,1.44
2019-01-28T20:57:34.932Z,1.44
2019-01-28T21:03:54.279Z,1.44
2019-01-28T21:06:42.883Z,1.46
2019-01-28T21:09:31.719Z,1.50
2019-01-28T21:12:20.651Z,1.54
2019-01-28T21:15:10.920Z,1.43
2019-01-28T21:17:59.411Z,1.49
2019-01-28T21:20:48.090Z,1.47
2019-01-28T21:23:37.171Z,1.50
2019-01-28T21:26:25.579Z,1.52
2019-01-28T21:29:14.151Z,1.54
2019-01-28T21:32:03.506Z,1.52
2019-01-28T21:34:53.493Z,1.54
2019-01-28T21:37:50.251Z,1.52
2019-01-28T21:40:39.763Z,1.62
2019-01-28T21:43:28.570Z,1.61
2019-01-28T21:46:17.303Z,1.64
2019-01-28T21:49:05.579Z,1.61
2019-01-28T21:51:54.789Z,1.62
2019-01-28T21:54:43.652Z,1.64
2019-01-28T21:57:31.974Z,1.64
2019-01-28T22:00:39.588Z,1.57
2019-01-28T22:03:27.769Z,1.53
2019-01-28T22:06:16.533Z,1.48
2019-01-28T22:09:07.827Z,1.50
2019-01-28T22:11:56.157Z,1.61
2019-01-28T22:14:45.944Z,1.47
2019-01-28T22:17:34.487Z,1.48
2019-01-28T22:20:23.152Z,1.32
2019-01-28T22:23:31.110Z,1.34
2019-01-28T22:26:20.395Z,1.25
2019-01-28T22:29:08.876Z,1.17
2019-01-28T22:31:57.484Z,1.18
2019-01-28T22:34:47.889Z,1.13
2019-01-28T22:37:37.819Z,1.13
2019-01-28T22:40:27.226Z,1.05
2019-01-28T22:43:16.798Z,0.99
2019-01-28T22:46:05.425Z,0.88
2019-01-28T22:48:54.823Z,0.68
2019-01-28T22:51:44.356Z,0.70
2019-01-28T22:54:33.705Z,0.74
2019-01-28T22:57:23.192Z,0.58
2019-01-28T23:00:49.255Z,0.67
2019-01-28T23:03:37.707Z,0.56
2019-01-28T23:06:26.093Z,0.53
2019-01-28T23:09:15.192Z,0.54
2019-01-28T23:12:03.787Z,0.57
2019-01-28T23:14:54.807Z,0.55
2019-01-28T23:17:45.724Z,0.55
2019-01-28T23:20:34.518Z,0.62
2019-01-28T23:23:23.790Z,0.57
2019-01-28T23:26:12.395Z,0.55
2019-01-28T23:29:00.490Z,0.57
2019-01-28T23:31:50.672Z,0.58
2019-01-28T23:34:39.402Z,0.54
2019-01-28T23:37:28.206Z,0.54
2019-01-28T23:40:16.934Z,0.57
2019-01-28T23:43:06.552Z,0.55
2019-01-28T23:45:55.146Z,0.62
2019-01-28T23:48:44.115Z,0.54
2019-01-28T23:51:32.779Z,0.52
2019-01-28T23:54:21.676Z,0.51
2019-01-28T23:57:11.503Z,0.49
2019-01-28T23:59:59.863Z,0.50
